Time;durP1;ratioP1;P1;durP2;ratioP2;P2;SDS_P1;SDS_P2;PMS_P1;PMS_P2;Temp;Humidity;BMP_temperature;BMP_pressure;BME280_temperature;BME280_humidity;BME280_pressure;Samples;Min_cycle;Max_cycle;Signal;HPM_P1;HPM_P2
2024/04/19 00:02:11;;;;;;;0.00;0.00;;;;;;;9.48;83.79;100709.59;6318681;22;19997;-79
2024/04/19 00:08:39;;;;;;;;;;;;;;;;;;;;;
2024/04/19 00:11:07;;;;;;;0.00;0.00;;;;;;;9.14;85.43;100647.72;6489303;21;20007;-75
2024/04/19 00:13:38;;;;;;;0.00;0.00;;;;;;;9.19;85.32;100657.88;6534451;21;19996;-75
2024/04/19 00:16:27;;;;;;;;;;;;;;;;;;;;;
2024/04/19 00:19:06;;;;;;;;;;;;;;;;;;;;;
2024/04/19 00:29:16;;;;;;;0.10;0.10;;;;;;;9.55;87.12;100689.22;6492278;21;20020;-76
2024/04/19 00:35:35;;;;;;;;;;;;;;;;;;;;;
2024/04/19 00:42:39;;;;;;;;;;;;;;;;;;;;;
2024/04/19 00:45:52;;;;;;;0.00;0.00;;;;;;;9.49;86.73;100671.13;6209815;23;19997;-74
2024/04/19 00:49:28;;;;;;;;;;;;;;;;;;;;;
2024/04/19 00:55:44;;;;;;;0.03;0.03;;;;;;;9.33;88.09;100611.91;6324822;22;20550;-74
2024/04/19 00:59:17;;;;;;;;;;;;;;;;;;;;;
2024/04/19 01:04:59;;;;;;;;;;;;;;;9.73;89.65;100663.50;6345244;22;20052;-75
2024/04/19 01:10:58;;;;;;;;;;;;;;;;;;;;;
2024/04/19 01:14:10;;;;;;;0.00;0.00;;;;;;;9.58;90.36;100589.59;6461460;22;20277;-74
2024/04/19 01:16:56;;;;;;;0.00;0.00;;;;;;;9.47;90.40;100566.78;6409397;22;19993;-74
2024/04/19 01:22:44;;;;;;;;;;;;;;;;;;;;;
2024/04/19 01:25:26;;;;;;;0.00;0.00;;;;;;;9.70;90.72;100589.47;6537669;21;20007;-75
2024/04/19 01:28:14;;;;;;;0.00;0.00;;;;;;;9.67;90.94;100581.78;6578807;21;20074;-76
2024/04/19 01:30:52;;;;;;;;;;;;;;;;;;;;;
2024/04/19 01:33:23;;;;;;;0.10;0.10;;;;;;;9.72;91.82;100574.44;6576278;21;20327;-75
2024/04/19 01:35:51;;;;;;;0.00;0.00;;;;;;;9.82;92.28;100583.84;6577968;21;19996;-77
2024/04/19 01:38:26;;;;;;;0.00;0.00;;;;;;;9.79;92.94;100582.44;6573539;21;20001;-75
2024/04/19 01:40:54;;;;;;;0.00;0.00;;;;;;;9.59;92.89;100548.38;6525567;21;20215;-76
2024/04/19 01:43:30;;;;;;;0.00;0.00;;;;;;;9.73;93.10;100569.81;6529448;21;20000;-76
2024/04/19 01:46:28;;;;;;;;;;;;;;;;;;;;;
2024/04/19 01:49:24;;;;;;;;;;;;;;;;;;;;;
2024/04/19 01:52:00;;;;;;;;;;;;;;;;;;;;;
2024/04/19 01:54:26;;;;;;;0.00;0.00;;;;;;;9.60;96.03;100558.22;6576435;21;20003;-76
2024/04/19 01:56:53;;;;;;;0.00;0.00;;;;;;;9.46;96.08;100537.84;6533894;21;19996;-75
2024/04/19 01:59:54;;;;;;;0.00;0.00;;;;;;;9.69;96.54;100576.88;6575157;21;19997;-76
2024/04/19 02:02:29;;;;;;;0.00;0.00;;;;;;;9.49;96.78;100536.50;6533051;21;20008;-76
2024/04/19 02:04:56;;;;;;;0.00;0.00;;;;;;;9.67;97.57;100562.66;6532209;21;20025;-75
2024/04/19 02:07:28;;;;;;;0.00;0.00;;;;;;;9.62;97.68;100547.03;6536008;21;19993;-75
2024/04/19 02:09:56;;;;;;;0.00;0.00;;;;;;;9.78;98.13;100567.97;6535148;21;20021;-75
2024/04/19 02:12:42;;;;;;;0.10;0.10;;;;;;;9.78;97.93;100559.78;6534059;21;19993;-76
2024/04/19 02:15:10;;;;;;;0.00;0.00;;;;;;;9.89;98.58;100568.88;6480454;22;19997;-73
2024/04/19 02:17:35;;;;;;;0.10;0.10;;;;;;;9.92;98.99;100556.63;6481173;22;20011;-74
2024/04/19 02:20:03;;;;;;;0.10;0.10;;;;;;;9.74;99.00;100530.53;6523198;22;20420;-75
2024/04/19 02:22:55;;;;;;;0.00;0.00;;;;;;;10.00;98.83;100574.44;6479359;22;19997;-76
2024/04/19 02:32:18;;;;;;;0.00;0.00;;;;;;;10.01;99.00;100543.31;6496735;22;20312;-74
2024/04/19 02:35:23;;;;;;;;;;;;;;;;;;;;;
2024/04/19 02:41:20;;;;;;;0.00;0.00;;;;;;;9.82;99.06;100497.25;6272175;22;20341;-75
2024/04/19 02:44:58;;;;;;;0.00;0.00;;;;;;;10.08;99.19;100535.75;6518303;22;20005;-75
2024/04/19 02:47:25;;;;;;;0.00;0.00;;;;;;;9.95;99.31;100517.88;6378246;22;20125;-75
2024/04/19 02:50:38;;;;;;;0.00;0.00;;;;;;;9.82;99.32;100491.78;6379958;22;20073;-74
2024/04/19 02:52:49;;;;;;;;;;;;;;;;;;;;;
2024/04/19 02:55:28;;;;;;;0.00;0.00;;;;;;;9.86;99.57;100498.41;6537786;21;20008;-75
2024/04/19 02:58:24;;;;;;;0.00;0.00;;;;;;;10.02;99.43;100529.41;6531034;21;20035;-74
2024/04/19 03:01:41;;;;;;;0.00;0.00;;;;;;;9.84;99.52;100492.38;6446844;21;20070;-74
2024/04/19 03:04:24;;;;;;;;;;;;;;;;;;;;;
2024/04/19 03:11:28;;;;;;;;;;;;;;;;;;;;;
2024/04/19 03:14:30;;;;;;;0.00;0.00;;;;;;;9.85;99.18;100488.53;6196479;22;20004;-74
2024/04/19 03:23:32;;;;;;;0.10;0.10;;;;;;;9.98;98.40;100497.41;6371022;22;20011;-74
2024/04/19 03:26:28;;;;;;;;;;;;;;;;;;;;;
2024/04/19 03:28:54;;;;;;;0.10;0.10;;;;;;;10.03;98.25;100487.34;6369089;22;20010;-75
2024/04/19 03:31:21;;;;;;;0.00;0.00;;;;;;;10.16;98.30;100513.38;6329684;22;19995;-75
2024/04/19 03:33:49;;;;;;;0.00;0.00;;;;;;;10.03;97.96;100492.81;6371149;22;19991;-73
2024/04/19 03:40:28;;;;;;;;;;;;;;;;;;;;;
2024/04/19 03:43:24;;;;;;;0.10;0.10;;;;;;;9.99;97.24;100479.91;6141408;23;20002;-75
2024/04/19 03:45:53;;;;;;;0.00;0.00;;;;;;;10.00;97.13;100487.03;6136950;23;20009;-76
2024/04/19 03:48:18;;;;;;;0.00;0.00;;;;;;;10.08;97.10;100489.28;6174934;23;20010;-75
2024/04/19 03:51:40;;;;;;;;;;;;;;;;;;;;;
2024/04/19 03:54:18;;;;;;;;;;;;;;;;;;;;;
2024/04/19 03:56:56;;;;;;;0.00;0.00;;;;;;;10.09;96.81;100485.44;6537090;21;19996;-75
2024/04/19 03:59:25;;;;;;;0.00;0.00;;;;;;;10.34;96.71;100525.03;6453176;21;20000;-75
2024/04/19 04:02:03;;;;;;;;;;;;;;;;;;;;;
2024/04/19 04:04:34;;;;;;;0.00;0.00;;;;;;;10.08;96.50;100481.09;6535473;21;19993;-76
2024/04/19 04:06:59;;;;;;;0.00;0.00;;;;;;;10.42;96.61;100536.31;6489363;21;20288;-75
2024/04/19 04:09:27;;;;;;;0.00;0.00;;;;;;;10.03;96.09;100481.03;6530335;21;20004;-76
2024/04/19 04:11:56;;;;;;;0.00;0.00;;;;;;;10.40;95.99;100534.94;6531624;21;20011;-75
2024/04/19 04:14:32;;;;;;;0.10;0.10;;;;;;;10.21;95.90;100512.63;6579245;21;19997;-75
2024/04/19 04:16:57;;;;;;;0.05;0.05;;;;;;;10.36;95.86;100533.81;6492221;21;20045;-75
2024/04/19 04:19:25;;;;;;;0.00;0.00;;;;;;;10.29;95.78;100523.06;6580631;21;20008;-76
2024/04/19 04:21:50;;;;;;;0.00;0.00;;;;;;;10.25;95.71;100517.31;6447702;21;19996;-75
2024/04/19 04:24:16;;;;;;;0.00;0.00;;;;;;;10.25;95.42;100516.47;6529605;21;20012;-76
2024/04/19 04:26:41;;;;;;;0.00;0.00;;;;;;;10.36;95.68;100534.63;6488223;21;20007;-76
2024/04/19 04:29:07;;;;;;;0.00;0.00;;;;;;;10.18;95.60;100505.78;6576459;21;20083;-76
2024/04/19 04:32:10;;;;;;;0.00;0.00;;;;;;;10.13;95.36;100502.97;6445402;21;20040;-75
2024/04/19 04:35:49;;;;;;;0.00;0.00;;;;;;;10.02;95.48;100495.81;6575850;21;20304;-75
2024/04/19 04:53:04;;;;;;;0.00;0.00;;;;;;;10.27;94.81;100528.78;6128967;22;20400;-76
2024/04/19 04:56:02;;;;;;;0.00;0.00;;;;;;;10.28;94.86;100532.38;6323267;22;20096;-75
2024/04/19 04:59:10;;;;;;;0.10;0.10;;;;;;;10.01;94.73;100485.94;6401707;22;20004;-75
2024/04/19 05:01:37;;;;;;;0.10;0.10;;;;;;;9.96;94.64;100476.63;6475698;21;20436;-74
2024/04/19 05:04:36;;;;;;;0.10;0.10;;;;;;;10.21;94.56;100512.63;6439275;22;19989;-74
2024/04/19 05:11:20;;;;;;;0.00;0.00;;;;;;;9.91;93.95;100468.38;6193070;23;20001;-75
2024/04/19 05:13:47;;;;;;;0.00;0.00;;;;;;;10.27;94.21;100520.59;6206160;22;20070;-74
2024/04/19 05:16:28;;;;;;;;;;;;;;;;;;;;;
2024/04/19 05:18:55;;;;;;;0.00;0.00;;;;;;;10.14;94.28;100499.97;6232923;22;20539;-74
2024/04/19 05:21:24;;;;;;;0.00;0.00;;;;;;;10.27;94.10;100519.78;6347052;22;20071;-75
2024/04/19 05:23:57;;;;;;;0.00;0.00;;;;;;;10.05;94.25;100484.34;6523407;22;20480;-74
2024/04/19 05:26:34;;;;;;;0.00;0.00;;;;;;;10.03;94.17;100481.03;6429706;22;20010;-73
2024/04/19 05:32:21;;;;;;;0.00;0.00;;;;;;;10.34;93.90;100528.59;6485938;22;19997;-75
2024/04/19 05:34:47;;;;;;;0.00;0.00;;;;;;;10.22;93.82;100525.19;6481191;22;20001;-77
2024/04/19 05:37:12;;;;;;;0.00;0.00;;;;;;;10.30;93.84;100525.53;6398793;22;20035;-73
2024/04/19 05:39:40;;;;;;;0.00;0.00;;;;;;;10.30;93.59;100520.06;6482544;22;20003;-73
2024/04/19 05:42:17;;;;;;;;;;;;;;;;;;;;;
2024/04/19 05:44:42;;;;;;;0.00;0.00;;;;;;;10.38;93.30;100516.06;6526021;22;19997;-74
2024/04/19 05:47:10;;;;;;;0.00;0.00;;;;;;;10.34;92.91;100504.00;6483827;22;20016;-74
2024/04/19 05:49:43;;;;;;;0.00;0.00;;;;;;;10.51;92.84;100513.94;6436593;22;20005;-75
2024/04/19 05:52:09;;;;;;;0.00;0.00;;;;;;;10.63;92.33;100531.81;6483656;22;20004;-73
2024/04/19 05:54:34;;;;;;;0.00;0.00;;;;;;;10.57;92.36;100512.88;6478075;22;20001;-74
2024/04/19 05:57:00;;;;;;;0.00;0.00;;;;;;;10.51;91.83;100492.88;6399600;22;20760;-74
2024/04/19 05:59:25;;;;;;;0.00;0.00;;;;;;;10.60;91.85;100496.78;6478240;22;20025;-74
2024/04/19 06:01:51;;;;;;;0.00;0.00;;;;;;;10.60;91.69;100495.94;6441963;22;20005;-74
2024/04/19 06:04:16;;;;;;;0.00;0.00;;;;;;;10.67;91.39;100512.13;6481437;22;20044;-74
2024/04/19 06:06:42;;;;;;;0.00;0.00;;;;;;;10.79;91.45;100508.13;6482420;22;20400;-75
2024/04/19 06:09:07;;;;;;;0.00;0.00;;;;;;;10.91;90.91;100524.31;6482945;22;20000;-72
2024/04/19 06:11:42;;;;;;;0.00;0.00;;;;;;;10.96;90.43;100520.78;6482424;22;19997;-74
2024/04/19 06:14:09;;;;;;;0.00;0.00;;;;;;;10.85;90.02;100503.50;6481185;22;20001;-74
2024/04/19 06:16:43;;;;;;;0.10;0.10;;;;;;;11.05;89.58;100518.34;6482411;22;20029;-74
2024/04/19 06:19:27;;;;;;;0.00;0.00;;;;;;;11.10;89.24;100532.88;6481642;22;19997;-73
2024/04/19 06:21:52;;;;;;;0.00;0.00;;;;;;;11.17;88.71;100527.19;6411840;22;19997;-75
2024/04/19 06:27:58;;;;;;;0.00;0.00;;;;;;;11.12;87.49;100502.50;6528796;22;19996;-74
2024/04/19 06:36:32;;;;;;;0.00;0.00;;;;;;;10.69;88.03;100471.66;6449588;21;20005;-74
2024/04/19 06:49:19;;;;;;;;;;;;;;;;;;;;;
2024/04/19 06:52:29;;;;;;;;;;;;;;;;;;;;;
2024/04/19 06:55:03;;;;;;;0.00;0.00;;;;;;;11.57;84.96;100462.66;6579540;21;20015;-77
2024/04/19 06:57:28;;;;;;;0.00;0.00;;;;;;;11.85;83.88;100476.94;6489304;21;20008;-75
2024/04/19 07:00:07;;;;;;;;;;;;;;;;;;;;;
2024/04/19 07:02:33;;;;;;;0.00;0.00;;;;;;;11.89;81.98;100478.03;6576833;21;19996;-74
2024/04/19 07:04:59;;;;;;;0.00;0.00;;;;;;;11.97;81.72;100496.72;6531242;21;20007;-72
2024/04/19 07:07:24;;;;;;;0.00;0.00;;;;;;;11.78;81.65;100482.66;6580972;21;19997;-74
2024/04/19 07:09:51;;;;;;;0.00;0.00;;;;;;;11.95;82.00;100504.38;6488274;21;20414;-75
2024/04/19 07:12:16;;;;;;;0.10;0.10;;;;;;;11.86;82.29;100484.88;6578028;21;20012;-73
2024/04/19 07:15:07;;;;;;;0.00;0.00;;;;;;;11.79;81.46;100461.59;6532204;21;20288;-75
2024/04/19 07:17:49;;;;;;;0.10;0.10;;;;;;;11.93;81.67;100476.44;6537638;21;19993;-75
2024/04/19 07:20:25;;;;;;;0.00;0.00;;;;;;;11.97;81.39;100491.22;6579413;21;20032;-75
2024/04/19 07:22:54;;;;;;;0.00;0.00;;;;;;;11.94;81.18;100469.81;6579617;21;20074;-75
2024/04/19 07:25:30;;;;;;;;;;;;;;;;;;;;;
2024/04/19 07:27:59;;;;;;;0.00;0.00;;;;;;;12.27;80.61;100514.25;6579279;21;19996;-74
2024/04/19 07:30:42;;;;;;;0.00;0.00;;;;;;;12.04;80.43;100497.22;6533643;21;19999;-74
2024/04/19 07:33:08;;;;;;;0.00;0.00;;;;;;;12.03;80.27;100501.09;6577588;21;20000;-74
2024/04/19 07:35:36;;;;;;;0.10;0.10;;;;;;;12.19;79.90;100528.50;6576500;21;20066;-74
2024/04/19 07:38:11;;;;;;;;;;;;;;;;;;;;;
2024/04/19 07:40:41;;;;;;;0.00;0.00;;;;;;;12.15;80.04;100511.78;6576248;21;19997;-74
2024/04/19 07:43:17;;;;;;;0.00;0.00;;;;;;;12.41;79.73;100506.25;6531490;21;20000;-73
2024/04/19 07:45:43;;;;;;;0.00;0.00;;;;;;;12.93;78.49;100512.47;6530911;21;20008;-73
2024/04/19 07:48:17;;;;;;;0.00;0.00;;;;;;;13.29;77.18;100520.56;6529964;21;19997;-73
2024/04/19 07:50:45;;;;;;;0.00;0.00;;;;;;;13.42;75.53;100533.72;6530857;21;20008;-73
2024/04/19 07:53:21;;;;;;;0.00;0.00;;;;;;;13.54;74.28;100500.41;6529071;21;20001;-75
2024/04/19 07:55:49;;;;;;;0.00;0.00;;;;;;;14.05;73.67;100521.22;6485187;21;20011;-74
2024/04/19 07:58:15;;;;;;;0.00;0.00;;;;;;;14.32;71.55;100523.47;6529310;21;19996;-74
2024/04/19 08:00:41;;;;;;;0.00;0.00;;;;;;;14.35;70.50;100526.75;6531471;21;20015;-73
2024/04/19 08:03:07;;;;;;;0.00;0.00;;;;;;;14.15;70.04;100498.31;6571664;21;20046;-74
2024/04/19 08:05:32;;;;;;;0.00;0.00;;;;;;;14.63;69.51;100536.13;6579650;21;19996;-74
2024/04/19 08:07:58;;;;;;;0.00;0.00;;;;;;;14.87;68.61;100538.09;6529563;21;20000;-74
2024/04/19 08:10:26;;;;;;;0.00;0.00;;;;;;;14.97;67.20;100502.19;6527611;21;20004;-75
2024/04/19 08:13:04;;;;;;;0.00;0.00;;;;;;;15.28;66.00;100518.34;6485374;21;20011;-73
2024/04/19 08:15:29;;;;;;;0.00;0.00;;;;;;;15.70;65.59;100511.94;6575247;21;20049;-74
2024/04/19 08:18:02;;;;;;;0.00;0.00;;;;;;;15.59;62.57;100515.16;6488080;21;20000;-74
2024/04/19 08:20:36;;;;;;;0.00;0.00;;;;;;;15.08;62.57;100511.94;6489812;21;20005;-74
2024/04/19 08:23:02;;;;;;;0.00;0.00;;;;;;;14.82;64.85;100527.94;6451493;21;20150;-74
2024/04/19 08:25:29;;;;;;;0.00;0.00;;;;;;;14.74;65.03;100534.09;6530267;21;19993;-74
2024/04/19 08:27:55;;;;;;;0.00;0.00;;;;;;;14.76;64.10;100529.13;6531742;21;20001;-74
2024/04/19 08:30:20;;;;;;;0.00;0.00;;;;;;;14.84;64.17;100528.50;6443028;21;20411;-74
2024/04/19 08:32:47;;;;;;;0.00;0.00;;;;;;;15.20;63.96;100533.59;6573954;21;20003;-75
2024/04/19 08:35:13;;;;;;;0.00;0.00;;;;;;;15.23;62.96;100526.66;6489527;21;20777;-75
2024/04/19 08:37:38;;;;;;;0.00;0.00;;;;;;;15.47;62.42;100510.09;6478532;21;20045;-74
2024/04/19 08:40:11;;;;;;;0.00;0.00;;;;;;;15.66;62.12;100513.66;6525168;21;20013;-75
2024/04/19 08:42:36;;;;;;;0.00;0.00;;;;;;;15.98;61.21;100522.34;6519238;22;20016;-75
2024/04/19 08:45:04;;;;;;;0.00;0.00;;;;;;;15.83;60.71;100502.16;6520560;22;20001;-73
2024/04/19 08:47:41;;;;;;;;;;;;;;;;;;;;;
2024/04/19 08:50:07;;;;;;;0.00;0.00;;;;;;;16.95;56.66;100491.38;6527041;22;20004;-75
2024/04/19 08:52:34;;;;;;;0.00;0.00;;;;;;;16.58;55.20;100480.97;6478076;22;20008;-73
2024/04/19 08:55:05;;;;;;;0.10;0.10;;;;;;;18.07;54.25;100470.63;6479981;22;20007;-74
2024/04/19 08:57:44;;;;;;;0.00;0.00;;;;;;;20.64;45.92;100496.16;6481859;22;20052;-75
2024/04/19 09:00:10;;;;;;;0.00;0.00;;;;;;;21.37;42.93;100511.84;6487360;21;20004;-76
2024/04/19 09:02:37;;;;;;;0.00;0.00;;;;;;;20.44;43.94;100535.75;6523141;22;20001;-76
2024/04/19 09:05:03;;;;;;;0.00;0.00;;;;;;;19.46;46.23;100524.97;6481864;22;20007;-75
2024/04/19 09:07:29;;;;;;;0.00;0.00;;;;;;;18.75;48.09;100526.69;6524820;22;20855;-76
2024/04/19 09:09:55;;;;;;;0.10;0.10;;;;;;;20.39;47.54;100518.13;6478634;22;20016;-74
2024/04/19 09:12:21;;;;;;;0.10;0.10;;;;;;;23.59;39.87;100544.31;6520682;22;20008;-74
2024/04/19 09:14:50;;;;;;;0.00;0.00;;;;;;;23.23;38.23;100544.00;6477046;22;19993;-73
2024/04/19 09:17:16;;;;;;;0.00;0.00;;;;;;;21.49;40.52;100547.25;6522872;21;20432;-73
2024/04/19 09:19:45;;;;;;;0.00;0.00;;;;;;;19.95;43.58;100553.44;6525341;22;20001;-76
2024/04/19 09:22:11;;;;;;;0.00;0.00;;;;;;;18.76;46.15;100533.03;6522862;22;20715;-76
2024/04/19 09:24:56;;;;;;;;;;;;;;;;;;;;;
2024/04/19 09:28:12;;;;;;;;;;;;;;;;;;;;;
2024/04/19 09:30:41;;;;;;;0.00;0.00;;;;;;;19.67;46.96;100556.50;6528393;22;19989;-75
2024/04/19 09:33:23;;;;;;;0.00;0.00;;;;;;;19.82;44.72;100543.34;6527796;21;20401;-74
2024/04/19 09:35:56;;;;;;;0.00;0.00;;;;;;;19.98;45.24;100558.34;6488242;21;20008;-74
2024/04/19 09:38:29;;;;;;;0.00;0.00;;;;;;;19.24;45.13;100551.66;6536185;21;20011;-73
2024/04/19 09:40:55;;;;;;;0.00;0.00;;;;;;;18.79;46.26;100557.34;6532000;21;20005;-74
2024/04/19 09:43:25;;;;;;;0.00;0.00;;;;;;;18.16;47.19;100540.66;6534446;21;20000;-74
2024/04/19 09:45:56;;;;;;;0.00;0.00;;;;;;;17.69;48.31;100549.19;6536936;21;20450;-73
2024/04/19 09:48:45;;;;;;;0.00;0.00;;;;;;;17.13;49.37;100558.69;6542292;21;20001;-76
2024/04/19 09:51:52;;;;;;;;;;;;;;;;;;;;;
2024/04/19 09:54:22;;;;;;;0.00;0.00;;;;;;;16.51;51.40;100540.47;6578720;21;19993;-75
2024/04/19 09:56:59;;;;;;;0.00;0.00;;;;;;;16.89;51.17;100546.72;6537259;21;20082;-74
2024/04/19 09:59:41;;;;;;;;;;;;;;;;;;;;;
2024/04/19 10:02:07;;;;;;;0.00;0.00;;;;;;;17.23;50.85;100553.78;6582342;21;19996;-74
2024/04/19 10:04:41;;;;;;;0.00;0.00;;;;;;;18.47;48.57;100545.41;6489415;21;20011;-75
2024/04/19 10:07:26;;;;;;;0.00;0.00;;;;;;;19.08;46.39;100525.53;6536569;21;19993;-75
2024/04/19 10:10:02;;;;;;;0.00;0.00;;;;;;;18.33;46.29;100517.03;6535446;21;19997;-76
2024/04/19 10:12:46;;;;;;;0.00;0.00;;;;;;;17.62;48.45;100549.63;6535879;21;20008;-74
2024/04/19 10:15:38;;;;;;;;;;;;;;;;;;;;;
2024/04/19 10:18:07;;;;;;;0.00;0.00;;;;;;;16.90;51.05;100528.19;6580355;21;19997;-75
2024/04/19 10:20:33;;;;;;;0.00;0.00;;;;;;;17.07;51.05;100539.47;6533924;21;20439;-75
2024/04/19 10:35:12;;;;;;;0.00;0.00;;;;;;;17.37;50.92;100547.41;5572364;25;20380;-75
2024/04/19 10:37:40;;;;;;;0.00;0.00;;;;;;;17.22;49.91;100518.97;5472576;25;20010;-74
2024/04/19 10:40:06;;;;;;;0.00;0.00;;;;;;;16.84;50.89;100535.72;5526433;25;19994;-73
2024/04/19 10:43:02;;;;;;;;;;;;;;;;;;;;;
2024/04/19 10:45:30;;;;;;;0.00;0.00;;;;;;;16.57;52.03;100526.28;5530421;25;20001;-75
2024/04/19 10:48:04;;;;;;;0.00;0.00;;;;;;;16.38;52.77;100567.75;5530895;25;20411;-74
2024/04/19 10:50:30;;;;;;;0.00;0.00;;;;;;;15.78;54.15;100537.22;5514964;25;20016;-75
2024/04/19 10:52:57;;;;;;;0.00;0.00;;;;;;;15.69;55.57;100561.88;5559836;25;20009;-74
2024/04/19 10:55:38;;;;;;;0.00;0.00;;;;;;;15.92;55.83;100564.91;5509776;25;20330;-74
2024/04/19 10:58:09;;;;;;;0.00;0.00;;;;;;;16.30;54.98;100538.06;5531227;25;19994;-75
2024/04/19 11:00:46;;;;;;;0.00;0.00;;;;;;;17.60;53.25;100545.53;5478353;25;20033;-75
2024/04/19 11:03:40;;;;;;;;;;;;;;;;;;;;;
2024/04/19 11:06:19;;;;;;;0.00;0.00;;;;;;;22.89;41.74;100557.19;5519191;25;19996;-75
2024/04/19 11:08:48;;;;;;;0.00;0.00;;;;;;;22.09;40.80;100569.44;5488694;25;20124;-75
2024/04/19 11:11:15;;;;;;;0.00;0.00;;;;;;;20.46;42.37;100550.13;5488498;25;20002;-75
2024/04/19 11:13:46;;;;;;;0.00;0.00;;;;;;;18.67;45.32;100522.75;5519887;25;20013;-75
2024/04/19 11:16:20;;;;;;;0.00;0.00;;;;;;;17.90;48.00;100568.97;5502467;25;20008;-75
2024/04/19 11:18:45;;;;;;;0.00;0.00;;;;;;;16.83;50.11;100528.56;5492077;25;20009;-75
2024/04/19 11:21:11;;;;;;;0.00;0.00;;;;;;;16.35;52.41;100575.78;5441676;25;20001;-73
2024/04/19 11:23:39;;;;;;;0.00;0.00;;;;;;;15.40;54.55;100549.03;5517347;25;19998;-75
2024/04/19 11:26:07;;;;;;;0.00;0.00;;;;;;;14.99;57.20;100555.03;5475642;26;20009;-75
2024/04/19 11:28:33;;;;;;;0.00;0.00;;;;;;;14.69;58.38;100551.50;5528267;25;20011;-73
2024/04/19 11:30:59;;;;;;;0.00;0.00;;;;;;;14.59;58.86;100546.06;5554438;25;20597;-74
2024/04/19 11:33:27;;;;;;;0.00;0.00;;;;;;;14.80;59.19;100566.78;5502316;25;20016;-74
2024/04/19 11:35:52;;;;;;;0.00;0.00;;;;;;;14.88;58.26;100531.47;5420283;25;19997;-74
2024/04/19 11:38:20;;;;;;;0.00;0.00;;;;;;;15.35;57.26;100541.63;5500166;25;20431;-74
2024/04/19 11:40:47;;;;;;;0.00;0.00;;;;;;;16.16;55.79;100548.25;5480959;25;20013;-74
2024/04/19 11:43:12;;;;;;;0.00;0.00;;;;;;;16.60;54.27;100551.63;5481129;25;20439;-73
2024/04/19 11:45:45;;;;;;;0.00;0.00;;;;;;;16.50;54.15;100559.00;5443543;25;20009;-74
2024/04/19 11:48:21;;;;;;;0.00;0.00;;;;;;;16.20;54.30;100566.66;5447206;26;20020;-74
2024/04/19 11:50:46;;;;;;;0.10;0.10;;;;;;;15.81;55.39;100559.53;5487866;25;20005;-74
2024/04/19 12:56:57;;;;;;;0.08;0.08;;;;;;;18.25;53.26;100594.16;5173275;27;20008;-77
2024/04/19 12:59:46;;;;;;;0.00;0.00;;;;;;;18.13;53.07;100558.72;5200993;27;21008;-75
2024/04/19 13:02:16;;;;;;;0.00;0.00;;;;;;;19.43;52.62;100562.47;5187122;27;20025;-76
2024/04/19 13:04:41;;;;;;;0.00;0.00;;;;;;;22.08;47.67;100565.88;5194402;27;20041;-77
2024/04/19 13:07:07;;;;;;;0.00;0.00;;;;;;;24.67;43.40;100580.97;5205321;27;20013;-76
2024/04/19 13:09:32;;;;;;;0.00;0.00;;;;;;;28.69;37.22;100535.47;5193890;27;20034;-75
2024/04/19 13:11:58;;;;;;;0.00;0.00;;;;;;;31.33;32.04;100546.66;5171422;27;20367;-76
2024/04/19 13:14:23;;;;;;;0.00;0.00;;;;;;;32.41;26.77;100548.31;5203406;27;20019;-76
2024/04/19 13:17:02;;;;;;;0.00;0.00;;;;;;;28.39;30.39;100541.97;5168146;27;20337;-76
2024/04/19 13:20:08;;;;;;;0.00;0.00;;;;;;;23.72;36.21;100554.28;5175221;27;20023;-77
2024/04/19 13:22:37;;;;;;;0.00;0.00;;;;;;;20.77;41.78;100521.31;5196866;27;20001;-77
2024/04/19 13:25:11;;;;;;;0.00;0.00;;;;;;;19.38;45.61;100512.75;5203866;27;20011;-77
2024/04/19 13:28:03;;;;;;;;;;;;;;;;;;;;;
2024/04/19 13:30:32;;;;;;;0.00;0.00;;;;;;;17.87;53.21;100536.34;5150178;27;20016;-76
2024/04/19 13:32:58;;;;;;;0.00;0.00;;;;;;;18.44;54.50;100573.75;5176444;27;20000;-76
2024/04/19 13:35:23;;;;;;;0.00;0.00;;;;;;;17.81;54.68;100529.28;5198491;27;20008;-75
2024/04/19 13:37:49;;;;;;;0.00;0.00;;;;;;;17.44;56.72;100575.47;5192525;27;20050;-76
2024/04/19 13:40:18;;;;;;;0.00;0.00;;;;;;;16.38;60.23;100517.25;5209840;27;20008;-75
2024/04/19 13:42:53;;;;;;;;;;;;;;;;;;;;;
2024/04/19 13:45:24;;;;;;;0.00;0.00;;;;;;;17.57;65.35;100541.44;5166653;27;20051;-75
2024/04/19 13:47:52;;;;;;;0.00;0.00;;;;;;;24.97;50.37;100533.81;5200931;27;20004;-77
2024/04/19 13:50:18;;;;;;;0.00;0.00;;;;;;;30.51;36.79;100572.81;5172626;27;20769;-76
2024/04/19 13:52:43;;;;;;;0.00;0.00;;;;;;;28.40;36.56;100549.19;5172890;27;20001;-76
2024/04/19 13:55:08;;;;;;;0.00;0.00;;;;;;;26.20;38.81;100568.22;5121099;27;20004;-76
2024/04/19 13:58:06;;;;;;;;;;;;;;;;;;;;;
2024/04/19 14:00:32;;;;;;;0.00;0.00;;;;;;;21.30;45.43;100561.63;5184499;27;20019;-76
2024/04/19 14:03:20;;;;;;;0.00;0.00;;;;;;;19.93;48.83;100558.53;5173268;27;20016;-77
2024/04/19 14:06:08;;;;;;;0.00;0.00;;;;;;;20.62;52.46;100562.34;5123171;27;20060;-77
2024/04/19 14:08:40;;;;;;;0.00;0.00;;;;;;;24.76;45.32;100556.44;5175083;27;20019;-76
2024/04/19 14:14:14;;;;;;;0.00;0.00;;;;;;;21.50;46.73;100548.91;5159809;27;20144;-76
2024/04/19 14:16:40;;;;;;;0.00;0.00;;;;;;;20.53;48.72;100528.22;5173658;27;20023;-77
2024/04/19 14:19:09;;;;;;;0.00;0.00;;;;;;;19.82;50.51;100559.97;5198428;27;20013;-77
2024/04/19 14:21:34;;;;;;;0.00;0.00;;;;;;;19.17;53.18;100570.72;5190588;27;20033;-77
2024/04/19 14:28:07;;;;;;;;;;;;;;;;;;;;;
2024/04/19 14:30:36;;;;;;;0.00;0.00;;;;;;;16.37;64.40;100559.78;5160280;27;20004;-75
2024/04/19 14:33:05;;;;;;;0.08;0.08;;;;;;;16.05;67.06;100586.22;5171539;27;20013;-76
2024/04/19 14:35:35;;;;;;;0.00;0.00;;;;;;;15.96;68.63;100549.38;5170834;27;20009;-77
2024/04/19 14:38:19;;;;;;;0.00;0.00;;;;;;;17.38;67.12;100538.81;5192387;27;20005;-78
2024/04/19 14:40:45;;;;;;;0.00;0.00;;;;;;;18.60;61.27;100550.09;5178389;27;20076;-77
2024/04/19 14:43:44;;;;;;;;;;;;;;;;;;;;;
2024/04/19 14:49:24;;;;;;;0.00;0.00;;;;;;;21.01;53.41;100582.72;5158451;27;20019;-76
2024/04/19 14:51:49;;;;;;;;;;;;;;;22.79;52.39;100586.34;5201603;27;20016;-76
2024/04/19 14:54:34;;;;;;;0.00;0.00;;;;;;;23.71;46.16;100544.25;5200303;27;19929;-77
2024/04/19 14:57:39;;;;;;;;;;;;;;;;;;;;;
2024/04/19 15:00:50;;;;;;;0.00;0.00;;;;;;;22.59;48.52;100568.53;5211381;27;19935;-78
2024/04/19 15:03:37;;;;;;;0.00;0.00;;;;;;;23.20;46.33;100571.75;5200962;27;20027;-77
2024/04/19 15:06:38;;;;;;;0.00;0.00;;;;;;;23.73;45.51;100550.31;5203000;27;20008;-76
2024/04/19 15:12:34;;;;;;;0.00;0.00;;;;;;;25.18;42.73;100578.28;5090081;28;20357;-75
2024/04/19 15:15:42;;;;;;;0.00;0.00;;;;;;;28.75;36.40;100556.41;5056345;28;20437;-75
2024/04/19 15:18:46;;;;;;;;;;;;;;;;;;;;;
2024/04/19 15:21:29;;;;;;;0.00;0.00;;;;;;;31.73;29.65;100536.09;5211222;27;19999;-74
2024/04/19 15:23:55;;;;;;;0.00;0.00;;;;;;;32.80;29.16;100511.28;5179790;27;20007;-76
2024/04/19 15:26:21;;;;;;;0.00;0.00;;;;;;;33.57;28.43;100532.81;5172359;27;20004;-77
2024/04/19 15:28:51;;;;;;;0.00;0.00;;;;;;;34.05;26.43;100535.88;5213557;27;20078;-76
2024/04/19 15:31:34;;;;;;;;;;;;;;;;;;;;;
2024/04/19 15:37:22;;;;;;;0.00;0.00;;;;;;;35.60;22.97;100541.94;5173959;27;20001;-80
2024/04/19 15:40:16;;;;;;;;;;;;;;;;;;;;;
2024/04/19 15:43:33;;;;;;;0.00;0.00;;;;;;;30.36;29.09;100552.19;5153319;27;20004;-76
2024/04/19 15:47:03;;;;;;;;;;;;;;;;;;;;;
2024/04/19 15:56:29;;;;;;;0.00;0.00;;;;;;;26.67;37.38;100532.63;5092593;27;20097;-74
2024/04/19 15:58:57;;;;;;;0.00;0.00;;;;;;;30.14;32.49;100554.13;5186407;27;20040;-75
2024/04/19 16:01:23;;;;;;;0.00;0.00;;;;;;;31.93;27.93;100563.88;5175828;27;20014;-76
2024/04/19 16:03:56;;;;;;;0.00;0.00;;;;;;;32.46;25.76;100568.50;5245315;27;20007;-76
2024/04/19 16:06:28;;;;;;;0.00;0.00;;;;;;;33.20;24.57;100565.53;5186366;27;19999;-76
2024/04/19 16:08:56;;;;;;;0.00;0.00;;;;;;;33.37;24.90;100557.31;5239175;27;20008;-75
2024/04/19 16:11:22;;;;;;;0.00;0.00;;;;;;;33.88;23.18;100563.25;5208717;27;20022;-74
2024/04/19 16:13:47;;;;;;;0.00;0.00;;;;;;;34.08;23.70;100578.41;5234162;27;20010;-75
2024/04/19 16:16:16;;;;;;;0.00;0.00;;;;;;;34.35;22.30;100562.69;5206487;27;20006;-73
2024/04/19 16:18:43;;;;;;;0.00;0.00;;;;;;;34.45;23.09;100558.88;5166368;27;19999;-76
2024/04/19 16:21:15;;;;;;;0.00;0.00;;;;;;;35.38;21.09;100558.59;5238085;27;20003;-76
2024/04/19 16:23:43;;;;;;;0.00;0.00;;;;;;;33.83;22.42;100577.91;5237348;27;20022;-74
2024/04/19 16:26:08;;;;;;;0.00;0.00;;;;;;;30.30;24.51;100574.34;5178457;27;20007;-75
2024/04/19 16:28:36;;;;;;;0.00;0.00;;;;;;;27.92;26.92;100566.69;5238457;27;20021;-75